sensor_id;sensor_type;location;lat;lon;timestamp;pressure;altitude;pressure_sealevel;temperature;humidity
63405;BME280;49541;57.840;12.306;2024-02-16T00:00:15;100171.63;;;6.58;100.00
63405;BME280;49541;57.840;12.306;2024-02-16T00:05:19;100157.59;;;7.03;100.00
63405;BME280;49541;57.840;12.306;2024-02-16T00:10:19;100154.34;;;6.76;100.00
63405;BME280;49541;57.840;12.306;2024-02-16T00:15:20;100148.09;;;7.11;100.00
63405;BME280;49541;57.840;12.306;2024-02-16T00:20:20;100133.69;;;6.93;100.00
63405;BME280;49541;57.840;12.306;2024-02-16T00:25:22;100126.56;;;6.93;100.00
63405;BME280;49541;57.840;12.306;2024-02-16T00:30:22;100126.78;;;6.90;100.00
63405;BME280;49541;57.840;12.306;2024-02-16T00:35:22;100130.66;;;7.09;100.00
63405;BME280;49541;57.840;12.306;2024-02-16T00:40:23;100123.66;;;7.19;100.00
63405;BME280;49541;57.840;12.306;2024-02-16T00:45:23;100114.06;;;6.95;100.00
63405;BME280;49541;57.840;12.306;2024-02-16T00:50:23;100107.16;;;7.27;100.00
63405;BME280;49541;57.840;12.306;2024-02-16T00:55:24;100111.03;;;7.00;100.00
63405;BME280;49541;57.840;12.306;2024-02-16T01:00:24;100103.22;;;7.21;100.00
63405;BME280;49541;57.840;12.306;2024-02-16T01:05:25;100104.91;;;7.87;100.00
63405;BME280;49541;57.840;12.306;2024-02-16T01:10:26;100097.56;;;7.58;100.00
63405;BME280;49541;57.840;12.306;2024-02-16T01:15:26;100109.97;;;7.90;100.00
63405;BME280;49541;57.840;12.306;2024-02-16T01:20:27;100108.25;;;7.68;100.00
63405;BME280;49541;57.840;12.306;2024-02-16T01:25:31;100085.59;;;7.75;100.00
63405;BME280;49541;57.840;12.306;2024-02-16T01:30:32;100080.34;;;7.85;100.00
63405;BME280;49541;57.840;12.306;2024-02-16T01:35:32;100081.38;;;7.72;100.00
63405;BME280;49541;57.840;12.306;2024-02-16T01:40:32;100072.72;;;7.70;100.00
63405;BME280;49541;57.840;12.306;2024-02-16T01:45:33;100073.63;;;7.80;100.00
63405;BME280;49541;57.840;12.306;2024-02-16T01:50:33;100063.81;;;8.13;100.00
63405;BME280;49541;57.840;12.306;2024-02-16T01:55:33;100060.53;;;7.68;100.00
63405;BME280;49541;57.840;12.306;2024-02-16T02:00:34;100055.97;;;7.70;100.00
63405;BME280;49541;57.840;12.306;2024-02-16T02:05:34;100051.59;;;8.01;100.00
63405;BME280;49541;57.840;12.306;2024-02-16T02:10:43;100051.47;;;8.03;100.00
63405;BME280;49541;57.840;12.306;2024-02-16T02:15:44;100040.78;;;8.35;100.00
63405;BME280;49541;57.840;12.306;2024-02-16T02:20:44;100032.53;;;8.38;100.00
63405;BME280;49541;57.840;12.306;2024-02-16T02:25:44;100023.56;;;8.50;100.00
63405;BME280;49541;57.840;12.306;2024-02-16T02:30:45;100013.66;;;8.52;100.00
63405;BME280;49541;57.840;12.306;2024-02-16T02:35:46;100017.25;;;8.42;100.00
63405;BME280;49541;57.840;12.306;2024-02-16T02:40:47;100021.56;;;8.43;100.00
63405;BME280;49541;57.840;12.306;2024-02-16T02:45:47;100007.38;;;8.53;100.00
63405;BME280;49541;57.840;12.306;2024-02-16T02:50:47;100009.41;;;8.19;100.00
63405;BME280;49541;57.840;12.306;2024-02-16T02:55:47;100002.69;;;8.15;100.00
63405;BME280;49541;57.840;12.306;2024-02-16T03:00:48;99998.28;;;8.46;100.00
63405;BME280;49541;57.840;12.306;2024-02-16T03:05:49;99997.56;;;8.44;100.00
63405;BME280;49541;57.840;12.306;2024-02-16T03:10:49;99994.81;;;8.34;100.00
63405;BME280;49541;57.840;12.306;2024-02-16T03:15:50;99972.88;;;8.53;100.00
63405;BME280;49541;57.840;12.306;2024-02-16T03:20:50;99971.38;;;8.70;100.00
63405;BME280;49541;57.840;12.306;2024-02-16T03:25:50;99979.47;;;8.69;100.00
63405;BME280;49541;57.840;12.306;2024-02-16T03:30:51;99979.69;;;8.87;100.00
63405;BME280;49541;57.840;12.306;2024-02-16T03:35:51;99981.47;;;8.76;100.00
63405;BME280;49541;57.840;12.306;2024-02-16T03:40:51;99989.00;;;8.81;100.00
63405;BME280;49541;57.840;12.306;2024-02-16T03:45:51;99971.72;;;8.87;100.00
63405;BME280;49541;57.840;12.306;2024-02-16T03:50:52;99968.25;;;9.15;100.00
63405;BME280;49541;57.840;12.306;2024-02-16T03:55:52;99958.91;;;9.40;100.00
63405;BME280;49541;57.840;12.306;2024-02-16T04:00:52;99954.53;;;9.59;100.00
63405;BME280;49541;57.840;12.306;2024-02-16T04:05:53;99955.09;;;9.43;100.00
63405;BME280;49541;57.840;12.306;2024-02-16T04:10:53;99958.06;;;9.40;100.00
63405;BME280;49541;57.840;12.306;2024-02-16T04:15:53;99951.91;;;9.30;100.00
63405;BME280;49541;57.840;12.306;2024-02-16T04:20:54;99949.53;;;9.17;100.00
63405;BME280;49541;57.840;12.306;2024-02-16T04:25:54;99948.91;;;9.81;100.00
63405;BME280;49541;57.840;12.306;2024-02-16T04:30:54;99941.13;;;9.98;100.00
63405;BME280;49541;57.840;12.306;2024-02-16T04:35:54;99940.72;;;10.02;100.00
63405;BME280;49541;57.840;12.306;2024-02-16T04:40:55;99936.00;;;9.87;100.00
63405;BME280;49541;57.840;12.306;2024-02-16T04:45:55;99940.09;;;9.81;100.00
63405;BME280;49541;57.840;12.306;2024-02-16T04:50:55;99952.91;;;9.95;100.00
63405;BME280;49541;57.840;12.306;2024-02-16T04:55:56;99938.66;;;9.96;100.00
63405;BME280;49541;57.840;12.306;2024-02-16T05:00:56;99936.00;;;9.96;100.00
63405;BME280;49541;57.840;12.306;2024-02-16T05:05:56;99937.25;;;9.92;100.00
63405;BME280;49541;57.840;12.306;2024-02-16T05:10:57;99937.44;;;10.18;100.00
63405;BME280;49541;57.840;12.306;2024-02-16T05:15:57;99938.72;;;10.14;100.00
63405;BME280;49541;57.840;12.306;2024-02-16T05:20:57;99934.41;;;10.03;100.00
63405;BME280;49541;57.840;12.306;2024-02-16T05:25:58;99941.13;;;9.98;100.00
63405;BME280;49541;57.840;12.306;2024-02-16T05:30:58;99936.84;;;10.24;100.00
63405;BME280;49541;57.840;12.306;2024-02-16T05:36:03;99925.16;;;10.08;100.00
63405;BME280;49541;57.840;12.306;2024-02-16T05:41:03;99936.94;;;10.05;100.00
63405;BME280;49541;57.840;12.306;2024-02-16T05:46:04;99925.66;;;10.21;100.00
63405;BME280;49541;57.840;12.306;2024-02-16T05:51:07;99912.75;;;10.36;100.00
63405;BME280;49541;57.840;12.306;2024-02-16T05:56:08;99920.16;;;10.42;100.00
63405;BME280;49541;57.840;12.306;2024-02-16T06:01:10;99918.88;;;10.46;100.00
63405;BME280;49541;57.840;12.306;2024-02-16T06:06:12;99888.59;;;10.47;100.00
63405;BME280;49541;57.840;12.306;2024-02-16T06:11:12;99887.31;;;10.51;100.00
63405;BME280;49541;57.840;12.306;2024-02-16T06:16:13;99896.41;;;10.76;100.00
63405;BME280;49541;57.840;12.306;2024-02-16T06:21:13;99879.59;;;10.94;100.00
63405;BME280;49541;57.840;12.306;2024-02-16T06:26:13;99867.03;;;11.04;100.00
63405;BME280;49541;57.840;12.306;2024-02-16T06:31:13;99867.34;;;10.83;100.00
63405;BME280;49541;57.840;12.306;2024-02-16T06:36:14;99862.06;;;11.09;100.00
63405;BME280;49541;57.840;12.306;2024-02-16T06:41:14;99864.91;;;10.90;100.00
63405;BME280;49541;57.840;12.306;2024-02-16T06:46:15;99868.88;;;11.03;100.00
63405;BME280;49541;57.840;12.306;2024-02-16T06:51:15;99881.25;;;11.13;100.00
63405;BME280;49541;57.840;12.306;2024-02-16T06:56:16;99876.75;;;11.13;100.00
63405;BME280;49541;57.840;12.306;2024-02-16T07:01:16;99873.78;;;11.16;100.00
63405;BME280;49541;57.840;12.306;2024-02-16T07:06:18;99875.53;;;11.07;100.00
63405;BME280;49541;57.840;12.306;2024-02-16T07:11:18;99871.06;;;10.90;100.00
63405;BME280;49541;57.840;12.306;2024-02-16T07:16:20;99855.06;;;11.26;100.00
63405;BME280;49541;57.840;12.306;2024-02-16T07:21:21;99866.56;;;11.09;100.00
63405;BME280;49541;57.840;12.306;2024-02-16T07:26:23;99861.88;;;11.46;100.00
63405;BME280;49541;57.840;12.306;2024-02-16T07:31:23;99865.78;;;11.34;100.00
63405;BME280;49541;57.840;12.306;2024-02-16T07:36:23;99874.53;;;11.53;100.00
63405;BME280;49541;57.840;12.306;2024-02-16T07:41:23;99870.72;;;11.29;100.00
63405;BME280;49541;57.840;12.306;2024-02-16T07:46:24;99867.47;;;11.17;100.00
63405;BME280;49541;57.840;12.306;2024-02-16T07:51:24;99872.66;;;11.19;100.00
63405;BME280;49541;57.840;12.306;2024-02-16T07:56:24;99876.94;;;11.38;100.00
63405;BME280;49541;57.840;12.306;2024-02-16T08:01:24;99875.41;;;11.09;100.00
63405;BME280;49541;57.840;12.306;2024-02-16T08:06:25;99881.66;;;11.00;100.00
63405;BME280;49541;57.840;12.306;2024-02-16T08:11:26;99882.03;;;10.69;100.00
63405;BME280;49541;57.840;12.306;2024-02-16T08:16:27;99875.31;;;10.65;100.00
63405;BME280;49541;57.840;12.306;2024-02-16T08:21:28;99885.88;;;10.75;100.00
63405;BME280;49541;57.840;12.306;2024-02-16T08:26:28;99864.59;;;10.75;100.00
63405;BME280;49541;57.840;12.306;2024-02-16T08:31:28;99867.47;;;10.63;100.00
63405;BME280;49541;57.840;12.306;2024-02-16T08:36:28;99874.19;;;10.68;100.00
63405;BME280;49541;57.840;12.306;2024-02-16T08:41:30;99854.03;;;10.83;100.00
63405;BME280;49541;57.840;12.306;2024-02-16T08:46:30;99847.00;;;11.18;100.00
63405;BME280;49541;57.840;12.306;2024-02-16T08:51:33;99832.22;;;11.23;100.00
63405;BME280;49541;57.840;12.306;2024-02-16T08:56:34;99846.19;;;10.99;100.00
63405;BME280;49541;57.840;12.306;2024-02-16T09:01:36;99832.41;;;11.04;100.00
63405;BME280;49541;57.840;12.306;2024-02-16T09:06:36;99839.50;;;10.95;100.00
63405;BME280;49541;57.840;12.306;2024-02-16T09:11:38;99845.13;;;10.92;100.00
63405;BME280;49541;57.840;12.306;2024-02-16T09:16:38;99837.53;;;10.97;100.00
63405;BME280;49541;57.840;12.306;2024-02-16T09:21:39;99833.38;;;11.21;100.00
63405;BME280;49541;57.840;12.306;2024-02-16T09:26:39;99813.25;;;11.53;100.00
63405;BME280;49541;57.840;12.306;2024-02-16T09:31:40;99810.78;;;11.59;100.00
63405;BME280;49541;57.840;12.306;2024-02-16T09:36:40;99808.44;;;11.56;100.00
63405;BME280;49541;57.840;12.306;2024-02-16T09:41:41;99814.97;;;11.62;100.00
63405;BME280;49541;57.840;12.306;2024-02-16T09:46:41;99787.13;;;11.91;100.00
63405;BME280;49541;57.840;12.306;2024-02-16T09:51:42;99771.47;;;11.96;100.00
63405;BME280;49541;57.840;12.306;2024-02-16T09:56:42;99765.25;;;11.87;100.00
63405;BME280;49541;57.840;12.306;2024-02-16T10:01:42;99753.84;;;12.03;100.00
63405;BME280;49541;57.840;12.306;2024-02-16T10:06:46;99756.03;;;11.73;100.00
63405;BME280;49541;57.840;12.306;2024-02-16T10:11:50;99755.31;;;11.63;100.00
63405;BME280;49541;57.840;12.306;2024-02-16T10:17:00;99755.88;;;11.75;100.00
63405;BME280;49541;57.840;12.306;2024-02-16T10:22:09;99747.41;;;11.79;100.00
63405;BME280;49541;57.840;12.306;2024-02-16T10:27:16;99755.31;;;11.63;100.00
63405;BME280;49541;57.840;12.306;2024-02-16T10:32:17;99759.16;;;11.60;100.00
63405;BME280;49541;57.840;12.306;2024-02-16T10:37:18;99771.63;;;11.25;100.00
63405;BME280;49541;57.840;12.306;2024-02-16T10:42:19;99779.09;;;11.22;100.00
63405;BME280;49541;57.840;12.306;2024-02-16T10:47:19;99772.78;;;10.79;100.00
63405;BME280;49541;57.840;12.306;2024-02-16T10:52:19;99760.75;;;10.93;100.00
63405;BME280;49541;57.840;12.306;2024-02-16T10:57:20;99772.78;;;10.79;100.00
63405;BME280;49541;57.840;12.306;2024-02-16T11:02:20;99762.66;;;10.64;100.00
63405;BME280;49541;57.840;12.306;2024-02-16T11:07:21;99770.38;;;10.68;100.00
63405;BME280;49541;57.840;12.306;2024-02-16T11:12:21;99759.84;;;10.66;100.00
63405;BME280;49541;57.840;12.306;2024-02-16T11:17:22;99751.28;;;10.54;100.00
63405;BME280;49541;57.840;12.306;2024-02-16T11:22:26;99740.16;;;10.41;100.00
63405;BME280;49541;57.840;12.306;2024-02-16T11:27:26;99733.94;;;10.32;100.00
63405;BME280;49541;57.840;12.306;2024-02-16T11:32:27;99735.09;;;10.48;100.00
63405;BME280;49541;57.840;12.306;2024-02-16T11:37:27;99731.97;;;10.52;100.00
63405;BME280;49541;57.840;12.306;2024-02-16T11:42:27;99741.25;;;10.48;100.00
63405;BME280;49541;57.840;12.306;2024-02-16T11:47:27;99724.88;;;10.43;100.00
63405;BME280;49541;57.840;12.306;2024-02-16T11:52:28;99723.50;;;10.21;100.00
63405;BME280;49541;57.840;12.306;2024-02-16T11:57:29;99721.50;;;10.33;100.00
63405;BME280;49541;57.840;12.306;2024-02-16T12:02:29;99711.97;;;10.30;100.00
63405;BME280;49541;57.840;12.306;2024-02-16T12:07:29;99702.75;;;10.24;100.00
63405;BME280;49541;57.840;12.306;2024-02-16T12:12:30;99671.66;;;10.25;100.00
63405;BME280;49541;57.840;12.306;2024-02-16T12:17:31;99678.44;;;10.19;100.00
63405;BME280;49541;57.840;12.306;2024-02-16T12:22:31;99672.97;;;10.39;100.00
63405;BME280;49541;57.840;12.306;2024-02-16T12:27:31;99677.31;;;10.40;100.00
63405;BME280;49541;57.840;12.306;2024-02-16T12:32:31;99667.81;;;10.37;100.00
63405;BME280;49541;57.840;12.306;2024-02-16T12:37:31;99648.66;;;10.34;100.00
63405;BME280;49541;57.840;12.306;2024-02-16T12:42:32;99638.91;;;10.24;100.00
63405;BME280;49541;57.840;12.306;2024-02-16T12:47:32;99649.41;;;10.44;100.00
63405;BME280;49541;57.840;12.306;2024-02-16T12:52:32;99614.59;;;10.37;100.00
63405;BME280;49541;57.840;12.306;2024-02-16T12:57:35;99594.84;;;10.40;100.00
63405;BME280;49541;57.840;12.306;2024-02-16T13:02:35;99610.63;;;10.23;100.00
63405;BME280;49541;57.840;12.306;2024-02-16T13:07:35;99615.91;;;10.15;100.00
63405;BME280;49541;57.840;12.306;2024-02-16T13:12:36;99600.31;;;10.20;100.00
63405;BME280;49541;57.840;12.306;2024-02-16T13:17:37;99574.47;;;10.13;100.00
63405;BME280;49541;57.840;12.306;2024-02-16T13:22:37;99582.22;;;10.24;100.00
63405;BME280;49541;57.840;12.306;2024-02-16T13:27:38;99570.44;;;10.27;100.00
63405;BME280;49541;57.840;12.306;2024-02-16T13:32:38;99556.44;;;10.42;100.00
63405;BME280;49541;57.840;12.306;2024-02-16T13:37:40;99553.91;;;10.41;100.00
63405;BME280;49541;57.840;12.306;2024-02-16T13:42:41;99547.03;;;10.56;100.00
63405;BME280;49541;57.840;12.306;2024-02-16T13:47:42;99544.59;;;10.37;100.00
63405;BME280;49541;57.840;12.306;2024-02-16T13:52:43;99542.97;;;10.00;100.00
63405;BME280;49541;57.840;12.306;2024-02-16T13:57:43;99535.31;;;9.97;100.00
63405;BME280;49541;57.840;12.306;2024-02-16T14:02:44;99526.59;;;10.31;100.00
63405;BME280;49541;57.840;12.306;2024-02-16T14:07:44;99522.16;;;10.21;100.00
63405;BME280;49541;57.840;12.306;2024-02-16T14:12:44;99511.53;;;10.39;100.00
63405;BME280;49541;57.840;12.306;2024-02-16T14:17:45;99521.19;;;10.22;100.00
63405;BME280;49541;57.840;12.306;2024-02-16T14:22:45;99504.16;;;10.07;100.00
63405;BME280;49541;57.840;12.306;2024-02-16T14:27:45;99503.56;;;9.95;100.00
63405;BME280;49541;57.840;12.306;2024-02-16T14:32:45;99498.75;;;9.99;100.00
63405;BME280;49541;57.840;12.306;2024-02-16T14:37:46;99496.00;;;10.09;100.00
63405;BME280;49541;57.840;12.306;2024-02-16T14:42:46;99482.69;;;10.09;100.00
63405;BME280;49541;57.840;12.306;2024-02-16T14:47:47;99483.50;;;10.01;100.00
63405;BME280;49541;57.840;12.306;2024-02-16T14:52:47;99482.75;;;9.91;100.00
63405;BME280;49541;57.840;12.306;2024-02-16T14:57:48;99490.16;;;10.05;100.00
63405;BME280;49541;57.840;12.306;2024-02-16T15:02:48;99481.19;;;10.06;100.00
63405;BME280;49541;57.840;12.306;2024-02-16T15:07:48;99488.75;;;9.93;100.00
63405;BME280;49541;57.840;12.306;2024-02-16T15:12:50;99507.16;;;9.86;100.00
63405;BME280;49541;57.840;12.306;2024-02-16T15:17:50;99484.44;;;9.74;100.00
63405;BME280;49541;57.840;12.306;2024-02-16T15:22:50;99474.34;;;9.77;100.00
63405;BME280;49541;57.840;12.306;2024-02-16T15:27:51;99480.97;;;9.73;100.00
63405;BME280;49541;57.840;12.306;2024-02-16T15:32:52;99486.22;;;9.65;100.00
63405;BME280;49541;57.840;12.306;2024-02-16T15:37:52;99489.56;;;9.67;100.00
63405;BME280;49541;57.840;12.306;2024-02-16T15:43:02;99487.66;;;9.41;100.00
63405;BME280;49541;57.840;12.306;2024-02-16T15:48:03;99463.84;;;9.50;100.00
63405;BME280;49541;57.840;12.306;2024-02-16T15:53:03;99500.13;;;9.23;100.00
63405;BME280;49541;57.840;12.306;2024-02-16T15:58:04;99500.72;;;9.17;100.00
63405;BME280;49541;57.840;12.306;2024-02-16T16:03:04;99462.16;;;9.13;100.00
63405;BME280;49541;57.840;12.306;2024-02-16T16:08:04;99475.72;;;8.92;100.00
63405;BME280;49541;57.840;12.306;2024-02-16T16:13:05;99481.84;;;8.92;100.00
63405;BME280;49541;57.840;12.306;2024-02-16T16:18:07;99472.88;;;8.75;100.00
63405;BME280;49541;57.840;12.306;2024-02-16T16:23:07;99476.25;;;8.95;100.00
63405;BME280;49541;57.840;12.306;2024-02-16T16:28:08;99464.91;;;8.75;100.00
63405;BME280;49541;57.840;12.306;2024-02-16T16:33:08;99463.16;;;8.66;100.00
63405;BME280;49541;57.840;12.306;2024-02-16T16:38:08;99472.84;;;8.57;100.00
63405;BME280;49541;57.840;12.306;2024-02-16T16:43:09;99473.13;;;8.54;100.00
63405;BME280;49541;57.840;12.306;2024-02-16T16:48:10;99479.97;;;8.85;100.00
63405;BME280;49541;57.840;12.306;2024-02-16T16:53:10;99489.06;;;8.82;100.00
63405;BME280;49541;57.840;12.306;2024-02-16T16:58:10;99483.59;;;8.84;100.00
63405;BME280;49541;57.840;12.306;2024-02-16T17:03:10;99479.72;;;8.78;100.00
63405;BME280;49541;57.840;12.306;2024-02-16T17:08:11;99485.66;;;8.62;100.00
63405;BME280;49541;57.840;12.306;2024-02-16T17:13:12;99504.47;;;8.41;100.00
63405;BME280;49541;57.840;12.306;2024-02-16T17:18:12;99515.50;;;8.27;100.00
63405;BME280;49541;57.840;12.306;2024-02-16T17:23:13;99512.47;;;8.02;100.00
63405;BME280;49541;57.840;12.306;2024-02-16T17:28:14;99518.63;;;8.03;100.00
63405;BME280;49541;57.840;12.306;2024-02-16T17:33:14;99525.91;;;8.00;100.00
63405;BME280;49541;57.840;12.306;2024-02-16T17:38:15;99539.44;;;7.78;100.00
63405;BME280;49541;57.840;12.306;2024-02-16T17:43:15;99552.53;;;7.41;100.00
63405;BME280;49541;57.840;12.306;2024-02-16T17:48:15;99554.72;;;7.16;100.00
63405;BME280;49541;57.840;12.306;2024-02-16T17:53:15;99560.53;;;7.00;100.00
63405;BME280;49541;57.840;12.306;2024-02-16T17:58:16;99572.78;;;6.91;100.00
63405;BME280;49541;57.840;12.306;2024-02-16T18:03:17;99579.00;;;6.81;100.00
63405;BME280;49541;57.840;12.306;2024-02-16T18:08:18;99606.38;;;6.70;100.00
63405;BME280;49541;57.840;12.306;2024-02-16T18:13:18;99608.44;;;6.66;100.00
63405;BME280;49541;57.840;12.306;2024-02-16T18:18:22;99610.59;;;6.51;100.00
63405;BME280;49541;57.840;12.306;2024-02-16T18:23:22;99619.94;;;6.55;100.00
63405;BME280;49541;57.840;12.306;2024-02-16T18:28:22;99610.78;;;6.60;100.00
63405;BME280;49541;57.840;12.306;2024-02-16T18:33:22;99631.50;;;6.54;100.00
63405;BME280;49541;57.840;12.306;2024-02-16T18:38:23;99640.19;;;6.45;100.00
63405;BME280;49541;57.840;12.306;2024-02-16T18:43:23;99636.31;;;6.49;100.00
63405;BME280;49541;57.840;12.306;2024-02-16T18:48:23;99643.41;;;6.70;100.00
63405;BME280;49541;57.840;12.306;2024-02-16T18:53:24;99663.94;;;6.56;100.00
63405;BME280;49541;57.840;12.306;2024-02-16T18:58:24;99662.56;;;6.20;100.00
63405;BME280;49541;57.840;12.306;2024-02-16T19:03:25;99669.47;;;6.11;100.00
63405;BME280;49541;57.840;12.306;2024-02-16T19:08:25;99682.72;;;6.00;100.00
63405;BME280;49541;57.840;12.306;2024-02-16T19:13:25;99692.28;;;6.12;100.00
63405;BME280;49541;57.840;12.306;2024-02-16T19:18:26;99690.16;;;5.95;100.00
63405;BME280;49541;57.840;12.306;2024-02-16T19:23:30;99706.97;;;5.83;100.00
63405;BME280;49541;57.840;12.306;2024-02-16T19:28:30;99718.75;;;5.90;100.00
63405;BME280;49541;57.840;12.306;2024-02-16T19:33:30;99729.19;;;5.80;100.00
63405;BME280;49541;57.840;12.306;2024-02-16T19:38:30;99740.38;;;5.61;100.00
63405;BME280;49541;57.840;12.306;2024-02-16T19:43:32;99747.25;;;5.52;100.00
63405;BME280;49541;57.840;12.306;2024-02-16T19:48:32;99761.31;;;5.53;100.00
63405;BME280;49541;57.840;12.306;2024-02-16T19:53:32;99780.25;;;5.47;100.00
63405;BME280;49541;57.840;12.306;2024-02-16T19:58:33;99770.53;;;5.47;100.00
63405;BME280;49541;57.840;12.306;2024-02-16T20:03:33;99781.22;;;5.34;100.00
63405;BME280;49541;57.840;12.306;2024-02-16T20:08:34;99793.41;;;5.13;100.00
63405;BME280;49541;57.840;12.306;2024-02-16T20:13:34;99796.41;;;5.08;100.00
63405;BME280;49541;57.840;12.306;2024-02-16T20:18:35;99807.91;;;5.07;100.00
63405;BME280;49541;57.840;12.306;2024-02-16T20:23:35;99819.78;;;5.02;100.00
63405;BME280;49541;57.840;12.306;2024-02-16T20:28:36;99833.81;;;5.02;100.00
63405;BME280;49541;57.840;12.306;2024-02-16T20:33:36;99848.44;;;4.95;100.00
63405;BME280;49541;57.840;12.306;2024-02-16T20:38:36;99862.66;;;4.92;100.00
63405;BME280;49541;57.840;12.306;2024-02-16T20:43:38;99866.25;;;4.80;100.00
63405;BME280;49541;57.840;12.306;2024-02-16T20:48:39;99868.97;;;4.79;100.00
63405;BME280;49541;57.840;12.306;2024-02-16T20:53:39;99875.28;;;4.65;100.00
63405;BME280;49541;57.840;12.306;2024-02-16T20:58:39;99883.50;;;4.60;100.00
63405;BME280;49541;57.840;12.306;2024-02-16T21:03:39;99890.78;;;4.69;100.00
63405;BME280;49541;57.840;12.306;2024-02-16T21:08:40;99889.06;;;4.68;100.00
63405;BME280;49541;57.840;12.306;2024-02-16T21:13:42;99910.88;;;4.46;100.00
63405;BME280;49541;57.840;12.306;2024-02-16T21:18:44;99919.03;;;4.67;100.00
63405;BME280;49541;57.840;12.306;2024-02-16T21:23:44;99917.97;;;4.70;100.00
63405;BME280;49541;57.840;12.306;2024-02-16T21:28:44;99921.28;;;4.85;100.00
63405;BME280;49541;57.840;12.306;2024-02-16T21:33:44;99924.03;;;4.83;100.00
63405;BME280;49541;57.840;12.306;2024-02-16T21:38:45;99928.19;;;4.99;100.00
63405;BME280;49541;57.840;12.306;2024-02-16T21:43:46;99925.53;;;4.99;100.00
63405;BME280;49541;57.840;12.306;2024-02-16T21:48:49;99931.53;;;5.01;100.00
63405;BME280;49541;57.840;12.306;2024-02-16T21:53:49;99925.09;;;5.05;100.00
63405;BME280;49541;57.840;12.306;2024-02-16T21:58:51;99931.34;;;5.04;100.00
63405;BME280;49541;57.840;12.306;2024-02-16T22:03:52;99937.59;;;5.14;100.00
63405;BME280;49541;57.840;12.306;2024-02-16T22:08:52;99942.44;;;4.96;100.00
63405;BME280;49541;57.840;12.306;2024-02-16T22:13:53;99952.59;;;5.13;100.00
63405;BME280;49541;57.840;12.306;2024-02-16T22:18:53;99955.63;;;5.20;100.00
63405;BME280;49541;57.840;12.306;2024-02-16T22:23:53;99955.69;;;5.31;100.00
63405;BME280;49541;57.840;12.306;2024-02-16T22:28:59;99952.06;;;5.32;100.00
63405;BME280;49541;57.840;12.306;2024-02-16T22:34:00;99951.88;;;5.47;100.00
63405;BME280;49541;57.840;12.306;2024-02-16T22:39:01;99946.34;;;5.39;100.00
63405;BME280;49541;57.840;12.306;2024-02-16T22:44:01;99948.63;;;5.43;100.00
63405;BME280;49541;57.840;12.306;2024-02-16T22:49:01;99957.72;;;5.39;100.00
63405;BME280;49541;57.840;12.306;2024-02-16T22:54:01;99961.94;;;5.42;100.00
63405;BME280;49541;57.840;12.306;2024-02-16T22:59:02;99963.66;;;5.54;100.00
63405;BME280;49541;57.840;12.306;2024-02-16T23:04:02;99963.38;;;5.46;100.00
63405;BME280;49541;57.840;12.306;2024-02-16T23:09:06;99967.00;;;5.45;100.00
63405;BME280;49541;57.840;12.306;2024-02-16T23:14:11;99971.09;;;5.49;100.00
63405;BME280;49541;57.840;12.306;2024-02-16T23:19:11;99986.25;;;5.69;100.00
63405;BME280;49541;57.840;12.306;2024-02-16T23:24:14;99980.78;;;5.84;100.00
63405;BME280;49541;57.840;12.306;2024-02-16T23:29:15;99985.16;;;5.61;100.00
63405;BME280;49541;57.840;12.306;2024-02-16T23:34:16;99982.88;;;5.67;100.00
63405;BME280;49541;57.840;12.306;2024-02-16T23:39:17;99979.66;;;5.64;100.00
63405;BME280;49541;57.840;12.306;2024-02-16T23:44:17;99996.97;;;5.44;100.00
63405;BME280;49541;57.840;12.306;2024-02-16T23:49:17;100001.09;;;5.48;100.00
63405;BME280;49541;57.840;12.306;2024-02-16T23:59:55;100016.06;;;5.36;100.00
